Time;durP1;ratioP1;P1;durP2;ratioP2;P2;SDS_P1;SDS_P2;PMS_P1;PMS_P2;Temp;Humidity;BMP_temperature;BMP_pressure;BME280_temperature;BME280_humidity;BME280_pressure;Samples;Min_cycle;Max_cycle;Signal;HPM_P1;HPM_P2
2021/04/16 00:02:15;;;;;;;1.75;0.45;;;4.40;99.90;;;;;;13074612;22;20086;-46
2021/04/16 00:07:36;;;;;;;0.68;0.22;;;4.30;99.90;;;;;;13089587;22;20097;-46
2021/04/16 00:12:58;;;;;;;0.38;0.28;;;4.20;99.90;;;;;;13092457;22;20015;-46
2021/04/16 00:18:22;;;;;;;1.55;0.45;;;4.20;99.90;;;;;;13083629;22;20015;-46
2021/04/16 00:23:44;;;;;;;2.33;0.30;;;4.10;99.90;;;;;;13094400;22;20022;-46
2021/04/16 00:29:06;;;;;;;1.30;0.55;;;4.00;99.90;;;;;;13092568;22;20056;-46
2021/04/16 00:34:27;;;;;;;0.85;0.40;;;4.00;99.90;;;;;;13089031;22;20097;-46
2021/04/16 00:39:48;;;;;;;1.77;0.68;;;3.90;99.90;;;;;;13074311;22;20075;-46
2021/04/16 00:45:09;;;;;;;0.70;0.30;;;4.00;99.90;;;;;;13087845;22;20014;-46
2021/04/16 00:50:40;;;;;;;1.08;0.57;;;3.90;99.90;;;;;;13077385;22;20045;-46
2021/04/16 00:56:02;;;;;;;2.40;0.40;;;3.90;99.90;;;;;;13092641;22;20446;-46
2021/04/16 01:01:27;;;;;;;2.15;0.93;;;3.90;99.90;;;;;;13094161;22;20092;-46
2021/04/16 01:06:48;;;;;;;1.83;0.60;;;3.90;99.90;;;;;;13090982;22;20220;-46
2021/04/16 01:12:11;;;;;;;0.50;0.25;;;3.90;99.90;;;;;;13080819;22;20011;-45
2021/04/16 01:17:32;;;;;;;0.95;0.35;;;3.90;99.90;;;;;;13094689;22;20071;-45
2021/04/16 01:23:13;;;;;;;2.03;1.17;;;3.90;99.90;;;;;;13091824;22;20007;-45
2021/04/16 01:28:35;;;;;;;0.95;0.45;;;3.90;99.90;;;;;;13092083;22;20023;-45
2021/04/16 01:33:56;;;;;;;6.57;0.68;;;3.80;99.90;;;;;;13089124;22;20007;-45
2021/04/16 01:39:17;;;;;;;0.80;0.32;;;3.80;99.90;;;;;;13092228;22;20532;-45
2021/04/16 01:44:44;;;;;;;1.00;0.20;;;3.80;99.90;;;;;;13060698;22;20007;-45
2021/04/16 01:50:06;;;;;;;1.10;0.30;;;3.70;99.90;;;;;;13078764;22;20395;-46
2021/04/16 01:55:27;;;;;;;0.55;0.25;;;3.70;99.90;;;;;;13092320;22;20019;-46
2021/04/16 02:00:50;;;;;;;2.50;0.88;;;3.60;99.90;;;;;;13091516;22;20128;-46
2021/04/16 02:06:11;;;;;;;0.55;0.13;;;3.60;99.90;;;;;;13097083;22;20524;-46
2021/04/16 02:11:34;;;;;;;1.75;0.40;;;3.50;99.90;;;;;;13099176;22;20027;-46
2021/04/16 02:17:03;;;;;;;7.13;0.65;;;3.50;99.90;;;;;;13095281;22;20081;-46
2021/04/16 02:22:27;;;;;;;0.95;0.50;;;3.40;99.90;;;;;;13098266;22;20068;-45
2021/04/16 02:27:48;;;;;;;2.17;0.90;;;3.20;99.90;;;;;;13093256;22;20030;-45
2021/04/16 02:33:09;;;;;;;1.38;0.40;;;3.20;99.90;;;;;;13094387;22;20534;-45
2021/04/16 02:38:30;;;;;;;0.80;0.45;;;3.10;99.90;;;;;;13073879;22;20049;-45
2021/04/16 02:43:54;;;;;;;2.10;0.52;;;3.00;99.90;;;;;;13095951;22;20518;-45
2021/04/16 02:49:18;;;;;;;0.47;0.30;;;3.00;99.90;;;;;;13094634;22;20019;-45
2021/04/16 02:54:39;;;;;;;3.20;0.65;;;2.90;99.90;;;;;;13092607;22;20061;-45
2021/04/16 03:00:00;;;;;;;1.42;0.50;;;2.90;99.90;;;;;;13092634;22;20006;-45
2021/04/16 03:05:22;;;;;;;2.65;0.50;;;2.80;99.90;;;;;;13094707;22;20312;-46
2021/04/16 03:10:43;;;;;;;1.48;0.57;;;2.80;99.90;;;;;;13092509;22;20030;-45
2021/04/16 03:16:05;;;;;;;1.88;0.68;;;2.80;99.90;;;;;;13093083;22;20011;-45
2021/04/16 03:21:27;;;;;;;0.88;0.57;;;2.80;99.90;;;;;;13091738;22;20007;-45
2021/04/16 03:26:48;;;;;;;1.30;0.60;;;2.80;99.90;;;;;;13092106;22;20022;-45
2021/04/16 03:32:09;;;;;;;2.25;1.08;;;2.80;99.90;;;;;;13095291;22;20003;-46
2021/04/16 03:37:30;;;;;;;0.73;0.47;;;2.90;99.90;;;;;;13093427;22;20169;-46
2021/04/16 03:42:51;;;;;;;2.15;0.88;;;2.80;99.90;;;;;;13093086;22;20084;-46
2021/04/16 03:48:12;;;;;;;3.22;0.68;;;2.80;99.90;;;;;;13008995;22;20020;-46
2021/04/16 03:53:35;;;;;;;1.42;0.70;;;2.80;99.90;;;;;;12999594;22;20003;-45
2021/04/16 03:58:56;;;;;;;4.18;0.82;;;2.90;99.90;;;;;;13020883;22;20075;-46
2021/04/16 04:04:17;;;;;;;1.33;0.40;;;2.80;99.90;;;;;;13021634;22;20361;-45
2021/04/16 04:09:38;;;;;;;1.23;0.38;;;2.80;99.90;;;;;;13022122;22;20101;-45
2021/04/16 04:15:00;;;;;;;2.78;0.90;;;2.80;99.90;;;;;;13006123;22;20003;-45
2021/04/16 04:20:25;;;;;;;2.22;0.63;;;2.70;99.90;;;;;;13022589;22;20015;-46
2021/04/16 04:25:46;;;;;;;1.00;0.40;;;2.80;99.90;;;;;;13019426;22;20011;-46
2021/04/16 04:31:07;;;;;;;1.38;0.50;;;2.70;99.90;;;;;;13018598;22;20430;-46
2021/04/16 04:36:29;;;;;;;0.70;0.40;;;2.60;99.90;;;;;;13020730;22;20011;-45
2021/04/16 04:41:49;;;;;;;1.52;0.50;;;2.60;99.90;;;;;;13019380;22;20791;-46
2021/04/16 04:47:11;;;;;;;2.30;0.70;;;2.50;99.90;;;;;;13048851;22;20339;-46
2021/04/16 04:52:34;;;;;;;2.15;0.95;;;2.50;99.90;;;;;;13087375;22;20015;-46
2021/04/16 04:57:57;;;;;;;2.28;0.75;;;2.50;99.90;;;;;;13085495;22;20022;-46
2021/04/16 05:03:18;;;;;;;1.73;0.73;;;2.50;99.90;;;;;;13087426;22;20551;-46
2021/04/16 05:08:39;;;;;;;3.33;1.20;;;2.60;99.90;;;;;;13086748;22;20025;-46
2021/04/16 05:14:00;;;;;;;1.75;0.75;;;2.60;99.90;;;;;;13063695;22;20078;-45
2021/04/16 05:19:21;;;;;;;1.85;0.80;;;2.70;99.90;;;;;;13084323;22;20011;-46
2021/04/16 05:24:42;;;;;;;1.75;0.95;;;2.80;99.90;;;;;;13083817;22;20015;-46
2021/04/16 05:30:06;;;;;;;1.67;0.68;;;2.80;99.90;;;;;;13084321;22;20372;-46
2021/04/16 05:35:28;;;;;;;5.28;1.77;;;2.90;99.90;;;;;;13083898;22;20023;-46
2021/04/16 05:40:49;;;;;;;2.45;1.15;;;2.90;99.90;;;;;;13089805;22;20006;-46
2021/04/16 05:46:10;;;;;;;1.92;1.00;;;2.90;99.90;;;;;;13092434;22;20019;-46
2021/04/16 05:51:31;;;;;;;1.88;0.70;;;3.00;99.90;;;;;;13089506;22;20065;-46
2021/04/16 05:56:53;;;;;;;3.00;0.82;;;3.20;99.90;;;;;;13088119;22;20098;-46
2021/04/16 06:02:29;;;;;;;2.13;0.80;;;3.40;99.90;;;;;;13086645;22;20006;-46
2021/04/16 06:07:54;;;;;;;3.63;1.60;;;3.50;99.90;;;;;;13084731;22;20018;-46
2021/04/16 06:13:15;;;;;;;1.00;0.60;;;3.80;99.90;;;;;;13069228;22;20021;-46
2021/04/16 06:18:36;;;;;;;4.25;1.75;;;4.00;99.90;;;;;;13087336;22;20137;-45
2021/04/16 06:23:57;;;;;;;4.97;0.93;;;4.30;99.90;;;;;;13085942;22;20022;-46
2021/04/16 06:29:18;;;;;;;2.40;1.30;;;4.60;99.90;;;;;;13088462;22;20030;-46
2021/04/16 06:34:40;;;;;;;2.58;1.13;;;4.90;99.90;;;;;;13080715;22;20018;-46
2021/04/16 06:40:01;;;;;;;6.72;1.00;;;5.30;99.90;;;;;;13082548;22;20007;-46
2021/04/16 06:45:26;;;;;;;1.20;0.60;;;5.80;99.90;;;;;;13084964;22;20442;-46
2021/04/16 06:50:47;;;;;;;1.83;0.60;;;6.00;99.90;;;;;;13079258;22;20011;-46
2021/04/16 07:01:29;;;;;;;2.63;0.98;;;6.70;99.90;;;;;;12916649;23;20073;-83
2021/04/16 07:06:54;;;;;;;2.83;0.93;;;6.80;99.90;;;;;;12889463;23;20032;-83
2021/04/16 07:12:20;;;;;;;2.42;0.73;;;7.10;99.90;;;;;;12892306;23;20020;-83
2021/04/16 07:17:43;;;;;;;1.70;0.55;;;7.30;99.90;;;;;;12909727;23;20562;-83
2021/04/16 07:23:04;;;;;;;1.63;0.55;;;7.30;99.90;;;;;;12909860;23;20012;-83
2021/04/16 07:28:48;;;;;;;2.72;1.10;;;7.50;99.90;;;;;;12868655;23;20679;-83
2021/04/16 07:34:41;;;;;;;2.28;0.85;;;7.60;99.90;;;;;;12870533;23;20015;-83
2021/04/16 07:40:05;;;;;;;2.00;0.80;;;7.60;99.90;;;;;;12873107;23;20012;-83
2021/04/16 07:45:26;;;;;;;1.75;0.57;;;7.80;99.90;;;;;;12904603;23;20012;-83
2021/04/16 07:50:56;;;;;;;6.05;0.57;;;8.10;99.90;;;;;;12901880;23;20464;-83
2021/04/16 07:56:23;;;;;;;2.70;0.88;;;8.30;99.90;;;;;;12868172;22;20027;-83
2021/04/16 08:01:46;;;;;;;3.03;1.02;;;8.40;99.90;;;;;;12890826;22;20012;-83
2021/04/16 08:07:32;;;;;;;1.50;0.60;;;8.50;99.90;;;;;;12875041;23;20020;-82
2021/04/16 08:13:06;;;;;;;2.03;0.93;;;8.60;99.90;;;;;;12896190;23;20012;-83
2021/04/16 08:18:31;;;;;;;2.00;0.90;;;8.80;99.90;;;;;;12871539;23;20019;-83
2021/04/16 08:24:00;;;;;;;1.50;0.52;;;8.90;99.90;;;;;;12854941;23;20155;-86
2021/04/16 08:29:47;;;;;;;;;;;9.20;99.90;;;;;;12892938;23;20357;-85
2021/04/16 08:35:37;;;;;;;1.55;0.77;;;9.30;99.90;;;;;;12839592;23;19983;-85
2021/04/16 08:41:03;;;;;;;4.38;1.30;;;9.40;99.90;;;;;;12875878;23;20082;-85
2021/04/16 08:46:46;;;;;;;2.95;0.85;;;9.60;99.90;;;;;;12878738;23;20027;-85
2021/04/16 08:52:20;;;;;;;2.47;0.70;;;9.70;99.90;;;;;;12872406;23;20518;-85
2021/04/16 08:57:58;;;;;;;2.03;0.68;;;9.80;99.90;;;;;;12872582;23;20032;-85
2021/04/16 09:03:26;;;;;;;7.10;1.07;;;10.00;99.90;;;;;;12880163;23;20028;-85
2021/04/16 09:08:49;;;;;;;5.03;1.20;;;10.30;99.90;;;;;;12875114;23;20313;-85
2021/04/16 09:14:24;;;;;;;2.97;0.95;;;10.60;99.90;;;;;;12893647;23;20032;-85
2021/04/16 09:19:58;;;;;;;2.28;0.77;;;10.60;99.90;;;;;;12883282;23;20048;-86
2021/04/16 09:25:46;;;;;;;3.72;0.70;;;10.80;99.90;;;;;;12883180;23;20019;-85
2021/04/16 09:31:21;;;;;;;3.55;1.05;;;10.90;99.90;;;;;;12902644;23;20057;-83
2021/04/16 09:36:46;;;;;;;2.65;1.13;;;11.40;99.90;;;;;;12876863;23;20441;-83
2021/04/16 09:42:46;;;;;;;1.42;0.40;;;11.60;99.90;;;;;;12882911;23;20020;-83
2021/04/16 09:48:17;;;;;;;2.23;0.53;;;12.00;99.90;;;;;;12878455;23;20016;-83
2021/04/16 09:53:38;;;;;;;3.47;1.13;;;11.90;99.90;;;;;;12880220;23;20243;-83
2021/04/16 09:59:02;;;;;;;1.52;0.40;;;12.30;99.90;;;;;;12861922;23;20082;-83
2021/04/16 10:04:57;;;;;;;1.42;0.35;;;12.50;99.90;;;;;;12878539;23;20016;-82
2021/04/16 10:10:36;;;;;;;2.80;0.40;;;12.20;99.90;;;;;;12880642;23;20012;-83
2021/04/16 10:15:59;;;;;;;3.67;1.15;;;12.30;99.90;;;;;;12900077;23;20016;-82
2021/04/16 10:21:28;;;;;;;2.58;1.05;;;12.70;99.90;;;;;;12877588;23;20372;-83
2021/04/16 10:46:43;;;;;;;1.75;0.70;;;13.00;99.90;;;;;;12900894;23;20463;-84
2021/04/16 12:38:58;;;;;;;4.72;0.90;;;17.10;59.40;;;;;;13061811;22;20019;-45
2021/04/16 12:44:41;;;;;;;4.60;0.55;;;16.30;64.40;;;;;;13075028;22;20157;-45
2021/04/16 12:50:05;;;;;;;1.00;0.40;;;16.70;62.00;;;;;;13075679;22;20046;-46
2021/04/16 12:55:26;;;;;;;1.67;0.60;;;16.30;64.40;;;;;;13081160;22;20381;-47
2021/04/16 13:00:48;;;;;;;1.45;0.43;;;17.40;60.80;;;;;;13071822;22;20046;-46
2021/04/16 13:06:20;;;;;;;1.00;0.40;;;18.00;57.60;;;;;;13074948;22;20336;-46
2021/04/16 13:11:41;;;;;;;2.20;0.32;;;18.70;55.80;;;;;;13078508;22;20022;-46
2021/04/16 13:17:03;;;;;;;1.27;0.30;;;19.30;56.10;;;;;;13073439;22;20007;-46
2021/04/16 13:22:26;;;;;;;1.25;0.47;;;19.00;55.50;;;;;;13069640;22;20412;-46
2021/04/16 13:27:47;;;;;;;1.05;0.60;;;18.50;53.50;;;;;;13054865;22;20461;-46
2021/04/16 13:33:16;;;;;;;1.20;0.40;;;18.90;50.50;;;;;;13078407;22;20094;-46
2021/04/16 13:38:38;;;;;;;1.95;0.50;;;18.90;52.40;;;;;;13058218;22;20010;-46
2021/04/16 13:43:59;;;;;;;0.80;0.30;;;19.00;52.40;;;;;;13076888;22;20017;-46
2021/04/16 13:49:24;;;;;;;5.18;0.55;;;18.90;53.00;;;;;;13060482;22;20019;-46
2021/04/16 13:54:47;;;;;;;0.90;0.43;;;18.90;52.80;;;;;;13068150;22;20664;-46
2021/04/16 14:00:12;;;;;;;1.52;0.40;;;18.70;52.50;;;;;;13067305;22;20370;-46
2021/04/16 14:05:34;;;;;;;1.55;0.57;;;18.10;55.30;;;;;;13074697;22;20019;-46
2021/04/16 14:10:55;;;;;;;2.17;0.50;;;17.30;55.80;;;;;;13071660;22;20407;-46
2021/04/16 14:16:27;;;;;;;1.77;0.68;;;16.40;58.30;;;;;;13072346;22;20015;-45
2021/04/16 14:21:52;;;;;;;1.23;0.40;;;15.60;59.30;;;;;;13071651;22;20014;-46
2021/04/16 14:27:13;;;;;;;2.30;0.30;;;15.10;62.90;;;;;;13078944;22;20014;-45
2021/04/16 14:32:34;;;;;;;1.40;0.50;;;14.50;65.50;;;;;;13063655;22;20544;-45
2021/04/16 14:37:55;;;;;;;0.50;0.20;;;13.90;70.10;;;;;;13080897;22;20015;-45
2021/04/16 14:43:18;;;;;;;1.23;0.35;;;13.60;76.60;;;;;;13054053;22;20022;-45
2021/04/16 14:48:39;;;;;;;1.95;0.70;;;13.40;85.10;;;;;;13080942;22;20392;-45
2021/04/16 14:54:03;;;;;;;1.08;0.30;;;13.20;88.70;;;;;;13078045;22;20011;-45
2021/04/16 14:59:28;;;;;;;1.23;0.35;;;13.20;88.80;;;;;;13082918;22;20026;-45
2021/04/16 15:04:49;;;;;;;2.55;0.77;;;13.20;94.10;;;;;;13073480;22;20018;-45
2021/04/16 15:10:17;;;;;;;1.50;0.47;;;13.30;93.80;;;;;;13081399;22;20034;-45
2021/04/16 15:15:43;;;;;;;2.83;0.50;;;13.20;95.60;;;;;;13082895;22;20110;-45
2021/04/16 15:21:12;;;;;;;2.40;0.30;;;13.10;94.90;;;;;;13081168;22;20368;-45
2021/04/16 15:26:33;;;;;;;0.60;0.30;;;12.80;96.50;;;;;;13075637;22;20067;-45
2021/04/16 15:31:54;;;;;;;1.00;0.30;;;12.70;97.30;;;;;;13079756;22;20018;-45
2021/04/16 15:48:57;;;;;;;5.00;0.70;;;12.60;99.90;;;;;;13073641;22;20045;-45
2021/04/16 15:54:19;;;;;;;1.60;0.40;;;12.40;99.60;;;;;;13072073;22;20113;-45
2021/04/16 15:59:40;;;;;;;1.17;0.40;;;12.20;99.70;;;;;;13076078;22;20029;-45
2021/04/16 16:05:01;;;;;;;0.30;0.20;;;12.10;99.90;;;;;;13069668;22;20102;-45
2021/04/16 16:10:22;;;;;;;2.13;0.32;;;12.00;99.90;;;;;;13074376;22;20117;-45
2021/04/16 16:15:45;;;;;;;1.20;0.50;;;11.90;99.90;;;;;;13074134;22;20056;-45
2021/04/16 16:21:10;;;;;;;1.75;0.68;;;11.90;99.90;;;;;;13071066;22;20037;-45
2021/04/16 16:26:46;;;;;;;2.50;1.25;;;11.80;99.90;;;;;;13064137;22;20021;-45
2021/04/16 16:32:13;;;;;;;1.98;0.55;;;11.60;99.90;;;;;;13074360;22;20007;-45
2021/04/16 16:37:34;;;;;;;1.65;0.70;;;11.30;99.90;;;;;;13070538;22;20037;-45
2021/04/16 16:43:14;;;;;;;3.45;0.93;;;11.30;99.90;;;;;;13068810;22;20034;-45
2021/04/16 16:48:36;;;;;;;3.03;1.45;;;11.30;99.90;;;;;;13073385;22;20018;-45
2021/04/16 16:53:59;;;;;;;2.58;0.60;;;11.20;99.90;;;;;;13051947;22;20011;-45
2021/04/16 16:59:29;;;;;;;3.38;0.35;;;11.30;99.90;;;;;;13074538;22;20087;-45
2021/04/16 17:04:50;;;;;;;1.95;0.70;;;11.10;99.90;;;;;;13070716;22;20037;-45
2021/04/16 17:10:13;;;;;;;1.17;0.40;;;10.90;99.90;;;;;;13075959;22;20010;-45
2021/04/16 17:15:50;;;;;;;1.25;0.43;;;10.80;99.90;;;;;;13082435;22;20080;-45
2021/04/16 17:21:16;;;;;;;3.78;0.50;;;10.70;99.90;;;;;;13077222;22;20011;-45
2021/04/16 17:26:44;;;;;;;1.35;0.50;;;10.60;99.90;;;;;;13071782;22;20018;-46
2021/04/16 17:32:05;;;;;;;1.02;0.50;;;10.40;99.90;;;;;;13076885;22;20434;-45
2021/04/16 17:37:26;;;;;;;0.95;0.35;;;10.40;99.90;;;;;;13082444;22;20011;-45
2021/04/16 17:42:50;;;;;;;1.45;0.60;;;10.30;99.90;;;;;;13084364;22;20022;-45
2021/04/16 17:48:14;;;;;;;1.77;0.40;;;10.30;99.90;;;;;;13081737;22;20014;-45
2021/04/16 17:53:36;;;;;;;1.65;0.75;;;10.10;99.90;;;;;;13030309;22;20023;-46
2021/04/16 17:59:10;;;;;;;1.58;0.28;;;10.10;99.90;;;;;;13075849;22;20037;-45
2021/04/16 18:04:31;;;;;;;0.90;0.45;;;9.90;99.90;;;;;;13057550;22;20041;-45
2021/04/16 18:09:55;;;;;;;2.65;0.70;;;10.00;99.90;;;;;;13072236;22;20207;-45
2021/04/16 18:15:17;;;;;;;1.13;0.57;;;9.80;99.90;;;;;;13073536;22;20579;-45
2021/04/16 18:20:38;;;;;;;2.22;0.55;;;9.80;99.90;;;;;;13073346;22;20136;-45
2021/04/16 18:25:59;;;;;;;1.88;0.60;;;9.60;99.90;;;;;;13069259;22;20446;-45
2021/04/16 18:31:22;;;;;;;2.13;0.47;;;9.60;99.90;;;;;;13077138;22;20014;-45
2021/04/16 18:36:45;;;;;;;1.05;0.30;;;9.50;99.90;;;;;;13075193;22;20011;-45
2021/04/16 18:42:08;;;;;;;2.90;0.82;;;9.40;99.90;;;;;;13077163;22;20003;-45
2021/04/16 18:47:30;;;;;;;1.02;0.60;;;9.20;99.90;;;;;;13036536;22;20019;-45
2021/04/16 18:52:58;;;;;;;3.50;1.08;;;9.10;99.90;;;;;;13074071;22;20261;-45
2021/04/16 18:58:19;;;;;;;2.42;0.82;;;9.10;99.90;;;;;;13049146;22;20035;-46
2021/04/16 19:03:40;;;;;;;1.92;0.55;;;9.10;99.90;;;;;;13076997;22;20014;-45
2021/04/16 19:09:04;;;;;;;1.25;0.65;;;9.00;99.90;;;;;;13077836;22;20023;-45
2021/04/16 19:14:31;;;;;;;3.45;0.45;;;8.90;99.90;;;;;;13079956;22;20010;-46
2021/04/16 19:19:57;;;;;;;11.65;0.73;;;9.00;99.90;;;;;;13060826;22;20459;-45
2021/04/16 19:25:22;;;;;;;5.30;1.10;;;8.80;99.90;;;;;;13078265;22;20010;-45
2021/04/16 19:30:50;;;;;;;1.73;0.68;;;8.70;99.90;;;;;;13081174;22;20014;-45
2021/04/16 19:36:13;;;;;;;2.95;0.80;;;8.70;99.90;;;;;;13080053;22;19995;-46
2021/04/16 19:41:34;;;;;;;4.50;0.90;;;8.70;99.90;;;;;;13079247;22;20014;-45
2021/04/16 19:46:56;;;;;;;2.20;0.63;;;8.70;99.90;;;;;;13080927;22;20505;-45
2021/04/16 20:20:41;;;;;;;1.45;0.40;;;8.30;99.90;;;;;;13050064;22;20087;-45
2021/04/16 20:26:07;;;;;;;2.45;0.75;;;8.20;99.90;;;;;;13081498;22;20505;-45
2021/04/16 20:31:30;;;;;;;0.82;0.43;;;8.20;99.90;;;;;;13079641;22;20030;-45
2021/04/16 20:36:51;;;;;;;1.85;0.60;;;8.10;99.90;;;;;;13080765;22;20007;-46
2021/04/16 20:42:17;;;;;;;1.63;0.47;;;8.00;99.90;;;;;;13082344;22;20112;-45
2021/04/16 20:47:38;;;;;;;0.90;0.40;;;8.00;99.90;;;;;;13080277;22;20022;-45
2021/04/16 20:53:00;;;;;;;1.10;0.70;;;8.00;99.90;;;;;;13078537;22;20022;-45
2021/04/16 20:58:22;;;;;;;1.67;0.80;;;7.90;99.90;;;;;;13083117;22;20033;-45
2021/04/16 21:03:50;;;;;;;2.13;1.48;;;7.90;99.90;;;;;;13081637;22;20474;-46
2021/04/16 21:09:28;;;;;;;2.35;0.50;;;7.80;99.90;;;;;;13080845;22;20011;-45
2021/04/16 21:14:49;;;;;;;0.98;0.40;;;7.80;99.90;;;;;;13081009;22;20041;-45
2021/04/16 21:20:38;;;;;;;0.88;0.55;;;7.70;99.90;;;;;;13081693;22;20041;-45
2021/04/16 21:26:01;;;;;;;3.00;0.43;;;7.70;99.90;;;;;;13079609;22;20458;-45
2021/04/16 21:31:33;;;;;;;0.65;0.38;;;7.70;99.90;;;;;;13083240;22;20380;-45
2021/04/16 21:36:57;;;;;;;2.80;0.68;;;7.60;99.90;;;;;;13082835;22;20090;-45
2021/04/16 21:42:21;;;;;;;1.15;0.43;;;7.50;99.90;;;;;;13085409;22;20313;-45
2021/04/16 21:47:42;;;;;;;0.93;0.80;;;7.50;99.90;;;;;;13083288;22;20033;-45
2021/04/16 21:53:08;;;;;;;2.50;0.60;;;7.50;99.90;;;;;;13082225;22;20011;-45
2021/04/16 21:58:29;;;;;;;0.98;0.38;;;7.30;99.90;;;;;;13084799;22;20027;-45
2021/04/16 22:04:00;;;;;;;3.00;0.70;;;7.30;99.90;;;;;;13082154;22;20015;-45
2021/04/16 22:09:44;;;;;;;1.23;0.68;;;7.30;99.90;;;;;;13083597;22;20011;-45
2021/04/16 22:15:22;;;;;;;3.15;0.70;;;7.30;99.90;;;;;;13081709;22;20061;-45
2021/04/16 22:20:44;;;;;;;3.33;0.88;;;7.20;99.90;;;;;;13083137;22;20452;-45
2021/04/16 22:26:06;;;;;;;2.22;0.65;;;7.10;99.90;;;;;;13082785;22;20490;-45
2021/04/16 22:31:34;;;;;;;2.03;0.73;;;7.00;99.90;;;;;;13079940;22;20035;-45
2021/04/16 22:36:56;;;;;;;3.20;0.70;;;7.00;99.90;;;;;;13078748;22;20092;-45
2021/04/16 22:42:19;;;;;;;3.75;0.63;;;6.90;99.90;;;;;;13082867;22;20014;-45
2021/04/16 22:47:42;;;;;;;1.40;0.55;;;6.80;99.90;;;;;;13080214;22;20359;-45
2021/04/16 22:53:06;;;;;;;3.53;0.98;;;6.80;99.90;;;;;;13078578;22;20062;-45
2021/04/16 22:58:27;;;;;;;3.22;0.73;;;6.80;99.90;;;;;;13078928;22;20027;-45
2021/04/16 23:03:53;;;;;;;1.90;0.60;;;6.80;99.90;;;;;;13077297;22;20151;-45
2021/04/16 23:09:20;;;;;;;5.07;0.40;;;6.80;99.90;;;;;;13077744;22;20021;-45
2021/04/16 23:14:41;;;;;;;2.47;0.68;;;6.70;99.90;;;;;;13079358;22;20033;-45
2021/04/16 23:20:03;;;;;;;1.60;0.50;;;6.70;99.90;;;;;;13077067;22;20118;-45
2021/04/16 23:25:28;;;;;;;2.60;0.63;;;6.70;99.90;;;;;;13077527;22;20038;-45
2021/04/16 23:31:05;;;;;;;1.58;0.65;;;6.70;99.90;;;;;;13075913;22;20045;-45
2021/04/16 23:36:52;;;;;;;1.60;0.63;;;6.60;99.90;;;;;;13079146;22;20668;-45
2021/04/16 23:42:16;;;;;;;1.95;0.35;;;6.50;99.90;;;;;;13074606;22;20018;-46
2021/04/16 23:47:37;;;;;;;1.95;0.82;;;6.50;99.90;;;;;;13076690;22;20351;-45
2021/04/16 23:52:58;;;;;;;2.08;0.80;;;6.40;99.90;;;;;;13076172;22;20010;-45
2021/04/16 23:58:19;;;;;;;1.00;0.40;;;6.40;99.90;;;;;;13077058;22;20026;-45
